Wild Rose, Wisconsin
Current Conditions -  °F | °C
As of 5:39 PM on Saturday 20 Dec 2014 (Local Time) from KY50 Reporting Station
Overcast Overcast  
Wind Chill: 30°   Ceiling: 2200
Heat Index: 30°   Visibility: 8mi
Dew Point: 27°   Wind: 0mph
Humidity: 86%   Direction: NA
Pressure: 30.21"   Gusts: NA
Location:  44.18°N, 89.25°W
Report Text: KY50 202339Z AUTO 00000KT 8SM BKN022 OVC036 M01/M03 A3021 RMK AO2 TSNO
Loading
Personal Weather Stations






























Interactive Weather Map New forecast layout! Learn more

10-Day Weather Forecast

Advertisements
Track Severe Weather on mobile